sensor_id;sensor_type;location;lat;lon;timestamp;P1;durP1;ratioP1;P2;durP2;ratioP2
5058;SDS011;2548;52.050;11.036;2023-03-29T00:00:49;2.97;;;2.72;;
5058;SDS011;2548;52.050;11.036;2023-03-29T00:03:17;10.50;;;3.63;;
5058;SDS011;2548;52.050;11.036;2023-03-29T00:05:44;10.20;;;3.15;;
5058;SDS011;2548;52.050;11.036;2023-03-29T00:08:12;6.82;;;3.50;;
5058;SDS011;2548;52.050;11.036;2023-03-29T00:10:41;4.85;;;3.70;;
5058;SDS011;2548;52.050;11.036;2023-03-29T00:13:08;5.53;;;3.80;;
5058;SDS011;2548;52.050;11.036;2023-03-29T00:15:36;7.03;;;4.60;;
5058;SDS011;2548;52.050;11.036;2023-03-29T00:18:03;18.58;;;4.75;;
5058;SDS011;2548;52.050;11.036;2023-03-29T00:20:31;8.43;;;5.03;;
5058;SDS011;2548;52.050;11.036;2023-03-29T00:22:58;8.95;;;4.60;;
5058;SDS011;2548;52.050;11.036;2023-03-29T00:25:25;15.10;;;4.32;;
5058;SDS011;2548;52.050;11.036;2023-03-29T00:27:54;7.68;;;4.32;;
5058;SDS011;2548;52.050;11.036;2023-03-29T00:30:22;5.32;;;4.50;;
5058;SDS011;2548;52.050;11.036;2023-03-29T00:32:50;7.18;;;4.68;;
5058;SDS011;2548;52.050;11.036;2023-03-29T00:35:17;8.23;;;4.25;;
5058;SDS011;2548;52.050;11.036;2023-03-29T00:37:45;7.07;;;6.00;;
5058;SDS011;2548;52.050;11.036;2023-03-29T00:40:15;18.45;;;5.80;;
5058;SDS011;2548;52.050;11.036;2023-03-29T00:42:43;4.35;;;4.00;;
5058;SDS011;2548;52.050;11.036;2023-03-29T00:45:19;7.80;;;3.70;;
5058;SDS011;2548;52.050;11.036;2023-03-29T00:47:48;4.38;;;3.97;;
5058;SDS011;2548;52.050;11.036;2023-03-29T00:50:18;8.38;;;4.65;;
5058;SDS011;2548;52.050;11.036;2023-03-29T00:52:52;3.38;;;3.08;;
5058;SDS011;2548;52.050;11.036;2023-03-29T00:55:23;7.30;;;3.30;;
5058;SDS011;2548;52.050;11.036;2023-03-29T00:57:53;6.13;;;3.45;;
5058;SDS011;2548;52.050;11.036;2023-03-29T01:00:25;7.15;;;3.38;;
5058;SDS011;2548;52.050;11.036;2023-03-29T01:02:57;11.88;;;3.85;;
5058;SDS011;2548;52.050;11.036;2023-03-29T01:05:27;9.32;;;3.38;;
5058;SDS011;2548;52.050;11.036;2023-03-29T01:07:59;7.15;;;3.67;;
5058;SDS011;2548;52.050;11.036;2023-03-29T01:10:30;10.70;;;3.10;;
5058;SDS011;2548;52.050;11.036;2023-03-29T01:13:02;3.50;;;3.00;;
5058;SDS011;2548;52.050;11.036;2023-03-29T01:15:33;4.63;;;2.92;;
5058;SDS011;2548;52.050;11.036;2023-03-29T01:18:02;7.40;;;4.93;;
5058;SDS011;2548;52.050;11.036;2023-03-29T01:20:40;8.30;;;5.35;;
5058;SDS011;2548;52.050;11.036;2023-03-29T01:23:31;9.45;;;4.38;;
5058;SDS011;2548;52.050;11.036;2023-03-29T01:26:25;4.28;;;3.17;;
5058;SDS011;2548;52.050;11.036;2023-03-29T01:29:04;4.15;;;3.72;;
5058;SDS011;2548;52.050;11.036;2023-03-29T01:31:36;11.48;;;3.80;;
5058;SDS011;2548;52.050;11.036;2023-03-29T01:34:08;3.78;;;2.72;;
5058;SDS011;2548;52.050;11.036;2023-03-29T01:36:42;6.00;;;2.70;;
5058;SDS011;2548;52.050;11.036;2023-03-29T01:39:14;5.70;;;3.63;;
5058;SDS011;2548;52.050;11.036;2023-03-29T01:41:45;11.13;;;3.25;;
5058;SDS011;2548;52.050;11.036;2023-03-29T01:44:20;8.07;;;3.40;;
5058;SDS011;2548;52.050;11.036;2023-03-29T01:46:54;9.93;;;3.75;;
5058;SDS011;2548;52.050;11.036;2023-03-29T01:49:31;4.63;;;3.03;;
5058;SDS011;2548;52.050;11.036;2023-03-29T01:52:05;4.78;;;3.63;;
5058;SDS011;2548;52.050;11.036;2023-03-29T01:54:40;12.63;;;4.22;;
5058;SDS011;2548;52.050;11.036;2023-03-29T01:57:13;4.13;;;3.60;;
5058;SDS011;2548;52.050;11.036;2023-03-29T01:59:44;10.98;;;3.95;;
5058;SDS011;2548;52.050;11.036;2023-03-29T02:02:13;5.78;;;3.10;;
5058;SDS011;2548;52.050;11.036;2023-03-29T02:04:46;5.10;;;3.50;;
5058;SDS011;2548;52.050;11.036;2023-03-29T02:07:17;10.23;;;3.60;;
5058;SDS011;2548;52.050;11.036;2023-03-29T02:09:49;9.25;;;4.10;;
5058;SDS011;2548;52.050;11.036;2023-03-29T02:12:18;8.35;;;3.60;;
5058;SDS011;2548;52.050;11.036;2023-03-29T02:14:48;6.20;;;3.42;;
5058;SDS011;2548;52.050;11.036;2023-03-29T02:17:16;9.38;;;3.65;;
5058;SDS011;2548;52.050;11.036;2023-03-29T02:19:45;7.72;;;3.65;;
5058;SDS011;2548;52.050;11.036;2023-03-29T02:22:18;7.20;;;3.60;;
5058;SDS011;2548;52.050;11.036;2023-03-29T02:24:49;3.72;;;2.55;;
5058;SDS011;2548;52.050;11.036;2023-03-29T02:27:21;6.03;;;3.10;;
5058;SDS011;2548;52.050;11.036;2023-03-29T02:29:50;7.97;;;3.10;;
5058;SDS011;2548;52.050;11.036;2023-03-29T02:32:19;9.35;;;3.45;;
5058;SDS011;2548;52.050;11.036;2023-03-29T02:34:52;6.90;;;3.63;;
5058;SDS011;2548;52.050;11.036;2023-03-29T02:37:23;8.05;;;2.30;;
5058;SDS011;2548;52.050;11.036;2023-03-29T02:39:55;3.72;;;3.33;;
5058;SDS011;2548;52.050;11.036;2023-03-29T02:42:24;8.38;;;3.28;;
5058;SDS011;2548;52.050;11.036;2023-03-29T02:44:54;3.22;;;2.72;;
5058;SDS011;2548;52.050;11.036;2023-03-29T02:47:25;8.05;;;3.10;;
5058;SDS011;2548;52.050;11.036;2023-03-29T02:49:57;5.32;;;2.78;;
5058;SDS011;2548;52.050;11.036;2023-03-29T02:52:27;7.45;;;3.47;;
5058;SDS011;2548;52.050;11.036;2023-03-29T02:54:59;9.73;;;3.35;;
5058;SDS011;2548;52.050;11.036;2023-03-29T02:57:29;4.18;;;3.40;;
5058;SDS011;2548;52.050;11.036;2023-03-29T02:59:58;5.35;;;2.63;;
5058;SDS011;2548;52.050;11.036;2023-03-29T03:02:26;4.75;;;3.53;;
5058;SDS011;2548;52.050;11.036;2023-03-29T03:04:55;3.83;;;3.20;;
5058;SDS011;2548;52.050;11.036;2023-03-29T03:07:23;3.92;;;3.63;;
5058;SDS011;2548;52.050;11.036;2023-03-29T03:09:50;12.63;;;4.60;;
5058;SDS011;2548;52.050;11.036;2023-03-29T03:12:18;5.95;;;4.30;;
5058;SDS011;2548;52.050;11.036;2023-03-29T03:14:45;2.75;;;2.50;;
5058;SDS011;2548;52.050;11.036;2023-03-29T03:17:14;13.85;;;3.53;;
5058;SDS011;2548;52.050;11.036;2023-03-29T03:19:44;4.28;;;3.03;;
5058;SDS011;2548;52.050;11.036;2023-03-29T03:24:40;4.43;;;3.60;;
5058;SDS011;2548;52.050;11.036;2023-03-29T03:27:09;4.82;;;3.72;;
5058;SDS011;2548;52.050;11.036;2023-03-29T03:29:37;5.22;;;2.58;;
5058;SDS011;2548;52.050;11.036;2023-03-29T03:32:26;5.25;;;3.38;;
5058;SDS011;2548;52.050;11.036;2023-03-29T03:35:19;7.47;;;3.67;;
5058;SDS011;2548;52.050;11.036;2023-03-29T03:37:47;3.78;;;3.47;;
5058;SDS011;2548;52.050;11.036;2023-03-29T03:40:16;6.28;;;3.20;;
5058;SDS011;2548;52.050;11.036;2023-03-29T03:42:45;3.67;;;3.47;;
5058;SDS011;2548;52.050;11.036;2023-03-29T03:45:13;3.80;;;3.22;;
5058;SDS011;2548;52.050;11.036;2023-03-29T03:47:42;8.13;;;3.22;;
5058;SDS011;2548;52.050;11.036;2023-03-29T03:50:24;8.43;;;2.90;;
5058;SDS011;2548;52.050;11.036;2023-03-29T03:52:51;6.88;;;3.30;;
5058;SDS011;2548;52.050;11.036;2023-03-29T03:55:19;3.20;;;2.92;;
5058;SDS011;2548;52.050;11.036;2023-03-29T03:58:02;6.00;;;3.20;;
5058;SDS011;2548;52.050;11.036;2023-03-29T04:00:30;2.72;;;2.50;;
5058;SDS011;2548;52.050;11.036;2023-03-29T04:03:19;4.50;;;3.63;;
5058;SDS011;2548;52.050;11.036;2023-03-29T04:05:47;3.72;;;3.25;;
5058;SDS011;2548;52.050;11.036;2023-03-29T04:08:17;4.50;;;3.70;;
5058;SDS011;2548;52.050;11.036;2023-03-29T04:11:07;10.35;;;3.28;;
5058;SDS011;2548;52.050;11.036;2023-03-29T04:13:37;8.57;;;3.75;;
5058;SDS011;2548;52.050;11.036;2023-03-29T04:16:27;7.53;;;3.60;;
5058;SDS011;2548;52.050;11.036;2023-03-29T04:19:02;9.63;;;3.55;;
5058;SDS011;2548;52.050;11.036;2023-03-29T04:21:29;4.22;;;3.92;;
5058;SDS011;2548;52.050;11.036;2023-03-29T04:23:58;3.72;;;3.33;;
5058;SDS011;2548;52.050;11.036;2023-03-29T04:26:26;5.13;;;4.05;;
5058;SDS011;2548;52.050;11.036;2023-03-29T04:29:00;7.43;;;2.92;;
5058;SDS011;2548;52.050;11.036;2023-03-29T04:31:40;2.88;;;2.78;;
5058;SDS011;2548;52.050;11.036;2023-03-29T04:34:27;5.72;;;3.80;;
5058;SDS011;2548;52.050;11.036;2023-03-29T04:36:56;8.70;;;3.75;;
5058;SDS011;2548;52.050;11.036;2023-03-29T04:39:24;4.55;;;3.45;;
5058;SDS011;2548;52.050;11.036;2023-03-29T04:41:59;4.10;;;3.80;;
5058;SDS011;2548;52.050;11.036;2023-03-29T04:44:29;6.70;;;3.55;;
5058;SDS011;2548;52.050;11.036;2023-03-29T04:46:59;4.75;;;3.55;;
5058;SDS011;2548;52.050;11.036;2023-03-29T04:49:47;6.32;;;4.22;;
5058;SDS011;2548;52.050;11.036;2023-03-29T04:52:23;6.70;;;3.78;;
5058;SDS011;2548;52.050;11.036;2023-03-29T04:54:51;7.63;;;3.90;;
5058;SDS011;2548;52.050;11.036;2023-03-29T04:57:38;4.45;;;4.15;;
5058;SDS011;2548;52.050;11.036;2023-03-29T05:00:13;4.75;;;4.35;;
5058;SDS011;2548;52.050;11.036;2023-03-29T05:03:00;4.40;;;3.70;;
5058;SDS011;2548;52.050;11.036;2023-03-29T05:05:33;5.55;;;4.47;;
5058;SDS011;2548;52.050;11.036;2023-03-29T05:08:01;11.38;;;3.72;;
5058;SDS011;2548;52.050;11.036;2023-03-29T05:10:40;5.65;;;4.28;;
5058;SDS011;2548;52.050;11.036;2023-03-29T05:13:09;5.10;;;3.80;;
5058;SDS011;2548;52.050;11.036;2023-03-29T05:15:40;5.07;;;4.57;;
5058;SDS011;2548;52.050;11.036;2023-03-29T05:18:08;4.82;;;4.25;;
5058;SDS011;2548;52.050;11.036;2023-03-29T05:20:37;8.77;;;4.18;;
5058;SDS011;2548;52.050;11.036;2023-03-29T05:23:05;4.80;;;4.40;;
5058;SDS011;2548;52.050;11.036;2023-03-29T05:25:56;5.80;;;5.20;;
5058;SDS011;2548;52.050;11.036;2023-03-29T05:28:24;14.68;;;4.97;;
5058;SDS011;2548;52.050;11.036;2023-03-29T05:30:57;4.55;;;4.25;;
5058;SDS011;2548;52.050;11.036;2023-03-29T05:33:26;5.10;;;4.60;;
5058;SDS011;2548;52.050;11.036;2023-03-29T05:36:01;4.70;;;4.35;;
5058;SDS011;2548;52.050;11.036;2023-03-29T05:38:30;6.65;;;4.53;;
5058;SDS011;2548;52.050;11.036;2023-03-29T05:40:58;6.90;;;4.45;;
5058;SDS011;2548;52.050;11.036;2023-03-29T05:43:32;4.93;;;4.43;;
5058;SDS011;2548;52.050;11.036;2023-03-29T05:46:00;4.78;;;4.35;;
5058;SDS011;2548;52.050;11.036;2023-03-29T05:48:29;6.50;;;4.72;;
5058;SDS011;2548;52.050;11.036;2023-03-29T05:50:57;5.57;;;5.18;;
5058;SDS011;2548;52.050;11.036;2023-03-29T05:53:26;5.55;;;5.07;;
5058;SDS011;2548;52.050;11.036;2023-03-29T05:55:54;6.25;;;4.70;;
5058;SDS011;2548;52.050;11.036;2023-03-29T05:58:24;4.75;;;4.50;;
5058;SDS011;2548;52.050;11.036;2023-03-29T06:00:53;5.90;;;4.60;;
5058;SDS011;2548;52.050;11.036;2023-03-29T06:03:41;8.93;;;4.93;;
5058;SDS011;2548;52.050;11.036;2023-03-29T06:06:09;5.80;;;4.43;;
5058;SDS011;2548;52.050;11.036;2023-03-29T06:08:38;20.35;;;17.05;;
5058;SDS011;2548;52.050;11.036;2023-03-29T06:11:14;26.02;;;15.32;;
5058;SDS011;2548;52.050;11.036;2023-03-29T06:14:05;103.45;;;67.25;;
5058;SDS011;2548;52.050;11.036;2023-03-29T06:16:35;119.20;;;81.38;;
5058;SDS011;2548;52.050;11.036;2023-03-29T06:19:02;55.80;;;39.85;;
5058;SDS011;2548;52.050;11.036;2023-03-29T06:21:32;20.35;;;16.45;;
5058;SDS011;2548;52.050;11.036;2023-03-29T06:24:03;12.43;;;11.30;;
5058;SDS011;2548;52.050;11.036;2023-03-29T06:26:37;11.18;;;10.10;;
5058;SDS011;2548;52.050;11.036;2023-03-29T06:29:04;8.43;;;7.80;;
5058;SDS011;2548;52.050;11.036;2023-03-29T06:31:33;10.07;;;8.18;;
5058;SDS011;2548;52.050;11.036;2023-03-29T06:34:02;8.82;;;7.90;;
5058;SDS011;2548;52.050;11.036;2023-03-29T06:36:48;14.55;;;7.47;;
5058;SDS011;2548;52.050;11.036;2023-03-29T06:39:21;6.10;;;5.47;;
5058;SDS011;2548;52.050;11.036;2023-03-29T06:42:09;9.50;;;5.72;;
5058;SDS011;2548;52.050;11.036;2023-03-29T06:44:57;6.88;;;6.18;;
5058;SDS011;2548;52.050;11.036;2023-03-29T06:47:24;7.97;;;7.38;;
5058;SDS011;2548;52.050;11.036;2023-03-29T06:49:55;7.70;;;7.00;;
5058;SDS011;2548;52.050;11.036;2023-03-29T06:52:31;8.98;;;8.07;;
5058;SDS011;2548;52.050;11.036;2023-03-29T06:55:00;9.75;;;7.10;;
5058;SDS011;2548;52.050;11.036;2023-03-29T06:57:28;10.35;;;7.50;;
5058;SDS011;2548;52.050;11.036;2023-03-29T06:59:56;10.10;;;8.77;;
5058;SDS011;2548;52.050;11.036;2023-03-29T07:02:41;8.93;;;8.13;;
5058;SDS011;2548;52.050;11.036;2023-03-29T07:05:11;7.07;;;6.57;;
5058;SDS011;2548;52.050;11.036;2023-03-29T07:07:46;8.40;;;7.60;;
5058;SDS011;2548;52.050;11.036;2023-03-29T07:10:43;7.90;;;7.20;;
5058;SDS011;2548;52.050;11.036;2023-03-29T07:13:30;8.65;;;7.80;;
5058;SDS011;2548;52.050;11.036;2023-03-29T07:15:59;9.23;;;6.50;;
5058;SDS011;2548;52.050;11.036;2023-03-29T07:18:50;7.53;;;6.72;;
5058;SDS011;2548;52.050;11.036;2023-03-29T07:21:44;11.85;;;7.72;;
5058;SDS011;2548;52.050;11.036;2023-03-29T07:24:13;6.85;;;5.90;;
5058;SDS011;2548;52.050;11.036;2023-03-29T07:26:43;6.50;;;5.90;;
5058;SDS011;2548;52.050;11.036;2023-03-29T07:29:11;5.65;;;5.25;;
5058;SDS011;2548;52.050;11.036;2023-03-29T07:31:39;6.85;;;6.22;;
5058;SDS011;2548;52.050;11.036;2023-03-29T07:34:43;8.10;;;5.45;;
5058;SDS011;2548;52.050;11.036;2023-03-29T07:37:20;6.47;;;5.80;;
5058;SDS011;2548;52.050;11.036;2023-03-29T07:39:49;7.93;;;7.15;;
5058;SDS011;2548;52.050;11.036;2023-03-29T07:42:44;7.13;;;6.43;;
5058;SDS011;2548;52.050;11.036;2023-03-29T07:45:16;7.53;;;6.78;;
5058;SDS011;2548;52.050;11.036;2023-03-29T07:47:56;9.02;;;6.60;;
5058;SDS011;2548;52.050;11.036;2023-03-29T07:50:29;11.90;;;6.13;;
5058;SDS011;2548;52.050;11.036;2023-03-29T07:52:59;6.90;;;6.30;;
5058;SDS011;2548;52.050;11.036;2023-03-29T07:55:28;12.10;;;5.80;;
5058;SDS011;2548;52.050;11.036;2023-03-29T07:58:05;38.08;;;12.55;;
5058;SDS011;2548;52.050;11.036;2023-03-29T08:00:34;20.35;;;13.82;;
5058;SDS011;2548;52.050;11.036;2023-03-29T08:03:22;12.25;;;8.10;;
5058;SDS011;2548;52.050;11.036;2023-03-29T08:05:50;7.68;;;6.97;;
5058;SDS011;2548;52.050;11.036;2023-03-29T08:08:17;6.78;;;6.18;;
5058;SDS011;2548;52.050;11.036;2023-03-29T08:10:55;7.90;;;7.20;;
5058;SDS011;2548;52.050;11.036;2023-03-29T08:13:43;13.38;;;8.32;;
5058;SDS011;2548;52.050;11.036;2023-03-29T08:16:26;8.82;;;6.75;;
5058;SDS011;2548;52.050;11.036;2023-03-29T08:19:05;6.10;;;5.50;;
5058;SDS011;2548;52.050;11.036;2023-03-29T08:21:48;6.35;;;5.85;;
5058;SDS011;2548;52.050;11.036;2023-03-29T08:24:16;11.27;;;6.47;;
5058;SDS011;2548;52.050;11.036;2023-03-29T08:26:48;13.38;;;6.57;;
5058;SDS011;2548;52.050;11.036;2023-03-29T08:29:20;10.52;;;6.28;;
5058;SDS011;2548;52.050;11.036;2023-03-29T08:31:48;10.27;;;5.70;;
5058;SDS011;2548;52.050;11.036;2023-03-29T08:34:15;7.20;;;6.20;;
5058;SDS011;2548;52.050;11.036;2023-03-29T08:37:01;5.47;;;5.07;;
5058;SDS011;2548;52.050;11.036;2023-03-29T08:39:40;5.95;;;5.38;;
5058;SDS011;2548;52.050;11.036;2023-03-29T08:42:22;7.47;;;4.88;;
5058;SDS011;2548;52.050;11.036;2023-03-29T08:45:10;6.82;;;5.60;;
5058;SDS011;2548;52.050;11.036;2023-03-29T08:47:46;4.43;;;3.90;;
5058;SDS011;2548;52.050;11.036;2023-03-29T08:50:30;6.53;;;4.07;;
5058;SDS011;2548;52.050;11.036;2023-03-29T08:53:01;4.85;;;4.50;;
5058;SDS011;2548;52.050;11.036;2023-03-29T08:55:51;6.72;;;4.25;;
5058;SDS011;2548;52.050;11.036;2023-03-29T08:58:54;19.65;;;4.13;;
5058;SDS011;2548;52.050;11.036;2023-03-29T09:01:27;12.65;;;5.30;;
5058;SDS011;2548;52.050;11.036;2023-03-29T09:04:01;11.88;;;4.38;;
5058;SDS011;2548;52.050;11.036;2023-03-29T09:06:46;4.43;;;4.18;;
5058;SDS011;2548;52.050;11.036;2023-03-29T09:09:20;6.03;;;4.20;;
5058;SDS011;2548;52.050;11.036;2023-03-29T09:11:55;4.20;;;3.80;;
5058;SDS011;2548;52.050;11.036;2023-03-29T09:14:42;5.50;;;4.95;;
5058;SDS011;2548;52.050;11.036;2023-03-29T09:17:24;5.18;;;4.78;;
5058;SDS011;2548;52.050;11.036;2023-03-29T09:20:03;7.63;;;5.72;;
5058;SDS011;2548;52.050;11.036;2023-03-29T09:22:40;5.78;;;5.03;;
5058;SDS011;2548;52.050;11.036;2023-03-29T09:25:14;5.68;;;4.88;;
5058;SDS011;2548;52.050;11.036;2023-03-29T09:27:51;7.78;;;4.70;;
5058;SDS011;2548;52.050;11.036;2023-03-29T09:30:37;9.65;;;5.28;;
5058;SDS011;2548;52.050;11.036;2023-03-29T09:33:12;6.72;;;5.00;;
5058;SDS011;2548;52.050;11.036;2023-03-29T09:36:15;6.35;;;4.45;;
5058;SDS011;2548;52.050;11.036;2023-03-29T09:38:46;6.80;;;4.28;;
5058;SDS011;2548;52.050;11.036;2023-03-29T09:41:20;5.13;;;4.65;;
5058;SDS011;2548;52.050;11.036;2023-03-29T09:43:51;5.60;;;4.78;;
5058;SDS011;2548;52.050;11.036;2023-03-29T09:46:25;5.57;;;5.00;;
5058;SDS011;2548;52.050;11.036;2023-03-29T09:48:57;5.25;;;4.85;;
5058;SDS011;2548;52.050;11.036;2023-03-29T09:51:25;8.88;;;5.03;;
5058;SDS011;2548;52.050;11.036;2023-03-29T09:53:55;7.63;;;4.20;;
5058;SDS011;2548;52.050;11.036;2023-03-29T09:56:42;7.63;;;6.90;;
5058;SDS011;2548;52.050;11.036;2023-03-29T09:59:13;7.50;;;4.13;;
5058;SDS011;2548;52.050;11.036;2023-03-29T10:01:41;5.15;;;4.75;;
5058;SDS011;2548;52.050;11.036;2023-03-29T10:04:13;5.95;;;4.43;;
5058;SDS011;2548;52.050;11.036;2023-03-29T10:06:46;7.53;;;4.85;;
5058;SDS011;2548;52.050;11.036;2023-03-29T10:09:18;6.13;;;4.45;;
5058;SDS011;2548;52.050;11.036;2023-03-29T10:11:50;5.53;;;5.00;;
5058;SDS011;2548;52.050;11.036;2023-03-29T10:14:22;4.72;;;4.32;;
5058;SDS011;2548;52.050;11.036;2023-03-29T10:16:58;4.70;;;3.60;;
5058;SDS011;2548;52.050;11.036;2023-03-29T10:19:28;5.20;;;4.80;;
5058;SDS011;2548;52.050;11.036;2023-03-29T10:22:00;10.35;;;4.95;;
5058;SDS011;2548;52.050;11.036;2023-03-29T10:24:29;4.95;;;4.45;;
5058;SDS011;2548;52.050;11.036;2023-03-29T10:26:57;10.60;;;4.32;;
5058;SDS011;2548;52.050;11.036;2023-03-29T10:29:33;6.28;;;5.15;;
5058;SDS011;2548;52.050;11.036;2023-03-29T10:32:12;9.30;;;4.88;;
5058;SDS011;2548;52.050;11.036;2023-03-29T10:34:42;5.93;;;4.20;;
5058;SDS011;2548;52.050;11.036;2023-03-29T10:37:12;6.13;;;4.88;;
5058;SDS011;2548;52.050;11.036;2023-03-29T10:39:41;9.07;;;4.28;;
5058;SDS011;2548;52.050;11.036;2023-03-29T10:42:10;5.30;;;4.43;;
5058;SDS011;2548;52.050;11.036;2023-03-29T10:44:39;5.88;;;4.28;;
5058;SDS011;2548;52.050;11.036;2023-03-29T10:47:08;5.15;;;4.75;;
5058;SDS011;2548;52.050;11.036;2023-03-29T10:49:40;5.55;;;4.38;;
5058;SDS011;2548;52.050;11.036;2023-03-29T10:52:12;12.38;;;7.60;;
5058;SDS011;2548;52.050;11.036;2023-03-29T10:54:41;14.02;;;8.00;;
5058;SDS011;2548;52.050;11.036;2023-03-29T10:57:09;10.52;;;6.32;;
5058;SDS011;2548;52.050;11.036;2023-03-29T10:59:44;9.88;;;4.63;;
5058;SDS011;2548;52.050;11.036;2023-03-29T11:02:39;4.45;;;4.10;;
5058;SDS011;2548;52.050;11.036;2023-03-29T11:05:28;6.22;;;4.20;;
5058;SDS011;2548;52.050;11.036;2023-03-29T11:08:08;4.15;;;3.85;;
5058;SDS011;2548;52.050;11.036;2023-03-29T11:10:54;7.78;;;4.03;;
5058;SDS011;2548;52.050;11.036;2023-03-29T11:13:33;4.90;;;3.55;;
5058;SDS011;2548;52.050;11.036;2023-03-29T11:16:12;5.43;;;3.53;;
5058;SDS011;2548;52.050;11.036;2023-03-29T11:19:06;4.90;;;4.20;;
5058;SDS011;2548;52.050;11.036;2023-03-29T11:21:49;4.60;;;4.20;;
5058;SDS011;2548;52.050;11.036;2023-03-29T11:24:25;5.43;;;3.80;;
5058;SDS011;2548;52.050;11.036;2023-03-29T11:27:05;5.00;;;4.55;;
5058;SDS011;2548;52.050;11.036;2023-03-29T11:29:43;5.05;;;4.43;;
5058;SDS011;2548;52.050;11.036;2023-03-29T11:32:25;4.63;;;3.97;;
5058;SDS011;2548;52.050;11.036;2023-03-29T11:35:00;5.07;;;4.65;;
5058;SDS011;2548;52.050;11.036;2023-03-29T11:37:36;9.73;;;5.07;;
5058;SDS011;2548;52.050;11.036;2023-03-29T11:40:15;4.30;;;3.83;;
5058;SDS011;2548;52.050;11.036;2023-03-29T11:42:57;7.00;;;5.35;;
5058;SDS011;2548;52.050;11.036;2023-03-29T11:45:26;7.10;;;5.00;;
5058;SDS011;2548;52.050;11.036;2023-03-29T11:47:59;20.92;;;5.20;;
5058;SDS011;2548;52.050;11.036;2023-03-29T11:50:39;37.22;;;6.10;;
5058;SDS011;2548;52.050;11.036;2023-03-29T11:53:13;16.70;;;5.88;;
5058;SDS011;2548;52.050;11.036;2023-03-29T11:55:47;5.15;;;3.83;;
5058;SDS011;2548;52.050;11.036;2023-03-29T11:58:17;5.40;;;4.20;;
5058;SDS011;2548;52.050;11.036;2023-03-29T12:00:49;7.30;;;4.03;;
5058;SDS011;2548;52.050;11.036;2023-03-29T12:03:20;5.60;;;4.57;;
5058;SDS011;2548;52.050;11.036;2023-03-29T12:05:57;4.43;;;4.13;;
5058;SDS011;2548;52.050;11.036;2023-03-29T12:08:31;4.22;;;3.83;;
5058;SDS011;2548;52.050;11.036;2023-03-29T12:11:05;5.85;;;4.20;;
5058;SDS011;2548;52.050;11.036;2023-03-29T12:13:38;4.13;;;3.75;;
5058;SDS011;2548;52.050;11.036;2023-03-29T12:16:12;5.28;;;3.75;;
5058;SDS011;2548;52.050;11.036;2023-03-29T12:18:43;8.43;;;4.13;;
5058;SDS011;2548;52.050;11.036;2023-03-29T12:21:15;4.60;;;3.83;;
5058;SDS011;2548;52.050;11.036;2023-03-29T12:23:48;4.78;;;4.20;;
5058;SDS011;2548;52.050;11.036;2023-03-29T12:26:19;6.70;;;3.90;;
5058;SDS011;2548;52.050;11.036;2023-03-29T12:31:52;3.63;;;3.35;;
5058;SDS011;2548;52.050;11.036;2023-03-29T12:34:35;6.57;;;4.47;;
5058;SDS011;2548;52.050;11.036;2023-03-29T12:37:35;7.15;;;3.95;;
5058;SDS011;2548;52.050;11.036;2023-03-29T12:40:37;5.00;;;3.85;;
5058;SDS011;2548;52.050;11.036;2023-03-29T12:43:26;4.05;;;3.47;;
5058;SDS011;2548;52.050;11.036;2023-03-29T12:46:24;4.72;;;4.28;;
5058;SDS011;2548;52.050;11.036;2023-03-29T12:48:54;5.20;;;4.60;;
5058;SDS011;2548;52.050;11.036;2023-03-29T12:51:26;5.28;;;4.80;;
5058;SDS011;2548;52.050;11.036;2023-03-29T12:53:59;5.30;;;4.80;;
5058;SDS011;2548;52.050;11.036;2023-03-29T12:56:39;3.70;;;3.50;;
5058;SDS011;2548;52.050;11.036;2023-03-29T12:59:23;4.45;;;4.15;;
5058;SDS011;2548;52.050;11.036;2023-03-29T13:01:57;5.88;;;4.60;;
5058;SDS011;2548;52.050;11.036;2023-03-29T13:04:35;4.57;;;4.20;;
5058;SDS011;2548;52.050;11.036;2023-03-29T13:07:14;6.88;;;4.30;;
5058;SDS011;2548;52.050;11.036;2023-03-29T13:09:53;5.43;;;5.03;;
5058;SDS011;2548;52.050;11.036;2023-03-29T13:12:24;6.25;;;4.47;;
5058;SDS011;2548;52.050;11.036;2023-03-29T13:14:54;4.68;;;4.28;;
5058;SDS011;2548;52.050;11.036;2023-03-29T13:17:24;4.68;;;4.32;;
5058;SDS011;2548;52.050;11.036;2023-03-29T13:20:02;4.60;;;4.07;;
5058;SDS011;2548;52.050;11.036;2023-03-29T13:22:42;6.45;;;4.28;;
5058;SDS011;2548;52.050;11.036;2023-03-29T13:25:24;4.80;;;4.50;;
5058;SDS011;2548;52.050;11.036;2023-03-29T13:28:05;4.95;;;4.20;;
5058;SDS011;2548;52.050;11.036;2023-03-29T13:30:43;7.63;;;4.47;;
5058;SDS011;2548;52.050;11.036;2023-03-29T13:33:23;11.48;;;3.75;;
5058;SDS011;2548;52.050;11.036;2023-03-29T13:36:13;6.25;;;3.88;;
5058;SDS011;2548;52.050;11.036;2023-03-29T13:38:46;4.28;;;3.92;;
5058;SDS011;2548;52.050;11.036;2023-03-29T13:41:24;5.10;;;4.05;;
5058;SDS011;2548;52.050;11.036;2023-03-29T13:43:55;9.32;;;4.18;;
5058;SDS011;2548;52.050;11.036;2023-03-29T13:46:33;5.30;;;3.60;;
5058;SDS011;2548;52.050;11.036;2023-03-29T13:49:03;6.60;;;3.78;;
5058;SDS011;2548;52.050;11.036;2023-03-29T13:51:39;5.53;;;5.03;;
5058;SDS011;2548;52.050;11.036;2023-03-29T13:54:12;6.20;;;3.83;;
5058;SDS011;2548;52.050;11.036;2023-03-29T13:56:53;5.57;;;4.22;;
5058;SDS011;2548;52.050;11.036;2023-03-29T13:59:29;8.15;;;4.40;;
5058;SDS011;2548;52.050;11.036;2023-03-29T14:02:03;5.25;;;4.65;;
5058;SDS011;2548;52.050;11.036;2023-03-29T14:04:33;5.28;;;4.88;;
5058;SDS011;2548;52.050;11.036;2023-03-29T14:07:06;4.78;;;4.43;;
5058;SDS011;2548;52.050;11.036;2023-03-29T14:09:37;4.18;;;3.80;;
5058;SDS011;2548;52.050;11.036;2023-03-29T14:12:09;3.55;;;3.30;;
5058;SDS011;2548;52.050;11.036;2023-03-29T14:14:42;4.38;;;4.07;;
5058;SDS011;2548;52.050;11.036;2023-03-29T14:17:13;8.18;;;5.13;;
5058;SDS011;2548;52.050;11.036;2023-03-29T14:19:44;6.38;;;3.67;;
5058;SDS011;2548;52.050;11.036;2023-03-29T14:22:13;3.33;;;3.03;;
5058;SDS011;2548;52.050;11.036;2023-03-29T14:24:45;4.63;;;4.13;;
5058;SDS011;2548;52.050;11.036;2023-03-29T14:27:17;4.22;;;3.78;;
5058;SDS011;2548;52.050;11.036;2023-03-29T14:29:46;5.53;;;5.00;;
5058;SDS011;2548;52.050;11.036;2023-03-29T14:32:16;9.23;;;3.95;;
5058;SDS011;2548;52.050;11.036;2023-03-29T14:34:46;3.25;;;3.05;;
5058;SDS011;2548;52.050;11.036;2023-03-29T14:37:16;5.80;;;3.67;;
5058;SDS011;2548;52.050;11.036;2023-03-29T14:39:48;5.22;;;3.55;;
5058;SDS011;2548;52.050;11.036;2023-03-29T14:42:17;3.10;;;2.90;;
5058;SDS011;2548;52.050;11.036;2023-03-29T14:44:48;4.13;;;3.10;;
5058;SDS011;2548;52.050;11.036;2023-03-29T14:47:18;7.07;;;3.17;;
5058;SDS011;2548;52.050;11.036;2023-03-29T14:49:49;2.83;;;2.72;;
5058;SDS011;2548;52.050;11.036;2023-03-29T14:52:19;3.72;;;3.17;;
5058;SDS011;2548;52.050;11.036;2023-03-29T14:54:48;3.80;;;3.47;;
5058;SDS011;2548;52.050;11.036;2023-03-29T14:57:18;4.20;;;2.95;;
5058;SDS011;2548;52.050;11.036;2023-03-29T14:59:52;3.30;;;3.10;;
5058;SDS011;2548;52.050;11.036;2023-03-29T15:02:24;3.63;;;3.33;;
5058;SDS011;2548;52.050;11.036;2023-03-29T15:04:55;4.40;;;2.95;;
5058;SDS011;2548;52.050;11.036;2023-03-29T15:07:24;4.50;;;4.13;;
5058;SDS011;2548;52.050;11.036;2023-03-29T15:09:54;3.67;;;3.42;;
5058;SDS011;2548;52.050;11.036;2023-03-29T15:14:56;5.18;;;4.68;;
5058;SDS011;2548;52.050;11.036;2023-03-29T15:17:27;4.35;;;3.95;;
5058;SDS011;2548;52.050;11.036;2023-03-29T15:19:58;5.00;;;4.60;;
5058;SDS011;2548;52.050;11.036;2023-03-29T15:22:36;4.85;;;4.30;;
5058;SDS011;2548;52.050;11.036;2023-03-29T15:25:08;2.53;;;2.42;;
5058;SDS011;2548;52.050;11.036;2023-03-29T15:27:41;5.10;;;2.42;;
5058;SDS011;2548;52.050;11.036;2023-03-29T15:30:12;15.77;;;3.75;;
5058;SDS011;2548;52.050;11.036;2023-03-29T15:32:41;7.55;;;3.50;;
5058;SDS011;2548;52.050;11.036;2023-03-29T15:35:20;2.45;;;2.35;;
5058;SDS011;2548;52.050;11.036;2023-03-29T15:37:49;9.55;;;6.07;;
5058;SDS011;2548;52.050;11.036;2023-03-29T15:40:17;4.22;;;3.83;;
5058;SDS011;2548;52.050;11.036;2023-03-29T15:42:49;4.10;;;3.80;;
5058;SDS011;2548;52.050;11.036;2023-03-29T15:45:18;27.15;;;11.95;;
5058;SDS011;2548;52.050;11.036;2023-03-29T15:47:47;24.92;;;11.55;;